sensor_id;sensor_type;location;lat;lon;timestamp;temperature;humidity
23629;DHT22;11991;57.150;-2.134;2022-09-28T00:01:22;8.80;99.90
23629;DHT22;11991;57.150;-2.134;2022-09-28T00:03:53;8.80;99.90
23629;DHT22;11991;57.150;-2.134;2022-09-28T00:06:22;8.90;99.90
23629;DHT22;11991;57.150;-2.134;2022-09-28T00:08:52;8.90;99.90
23629;DHT22;11991;57.150;-2.134;2022-09-28T00:11:21;8.90;99.90
23629;DHT22;11991;57.150;-2.134;2022-09-28T00:13:51;8.90;99.90
23629;DHT22;11991;57.150;-2.134;2022-09-28T00:16:20;9.00;99.90
23629;DHT22;11991;57.150;-2.134;2022-09-28T00:18:49;9.00;99.90
23629;DHT22;11991;57.150;-2.134;2022-09-28T00:21:22;9.00;99.90
23629;DHT22;11991;57.150;-2.134;2022-09-28T00:23:55;9.00;99.90
23629;DHT22;11991;57.150;-2.134;2022-09-28T00:31:55;9.00;99.90
23629;DHT22;11991;57.150;-2.134;2022-09-28T00:34:30;8.90;99.90
23629;DHT22;11991;57.150;-2.134;2022-09-28T00:36:58;8.90;99.90
23629;DHT22;11991;57.150;-2.134;2022-09-28T00:39:26;8.80;99.90
23629;DHT22;11991;57.150;-2.134;2022-09-28T00:41:53;8.80;99.90
23629;DHT22;11991;57.150;-2.134;2022-09-28T00:44:48;8.70;99.90
23629;DHT22;11991;57.150;-2.134;2022-09-28T00:50:31;8.70;99.90
23629;DHT22;11991;57.150;-2.134;2022-09-28T00:53:20;8.60;99.90
23629;DHT22;11991;57.150;-2.134;2022-09-28T00:55:53;8.60;99.90
23629;DHT22;11991;57.150;-2.134;2022-09-28T00:58:28;8.60;99.90
23629;DHT22;11991;57.150;-2.134;2022-09-28T01:00:58;8.50;99.90
23629;DHT22;11991;57.150;-2.134;2022-09-28T01:03:27;8.50;99.90
23629;DHT22;11991;57.150;-2.134;2022-09-28T01:05:58;8.50;99.90
23629;DHT22;11991;57.150;-2.134;2022-09-28T01:08:27;8.50;99.90
23629;DHT22;11991;57.150;-2.134;2022-09-28T01:10:57;8.50;99.90
23629;DHT22;11991;57.150;-2.134;2022-09-28T01:13:26;8.40;99.90
23629;DHT22;11991;57.150;-2.134;2022-09-28T01:18:31;8.40;99.90
23629;DHT22;11991;57.150;-2.134;2022-09-28T01:21:15;8.40;99.90
23629;DHT22;11991;57.150;-2.134;2022-09-28T01:24:13;8.40;99.90
23629;DHT22;11991;57.150;-2.134;2022-09-28T01:26:54;8.50;99.90
23629;DHT22;11991;57.150;-2.134;2022-09-28T01:29:55;8.40;99.90
23629;DHT22;11991;57.150;-2.134;2022-09-28T01:37:59;8.40;99.90
23629;DHT22;11991;57.150;-2.134;2022-09-28T01:40:29;8.40;99.90
23629;DHT22;11991;57.150;-2.134;2022-09-28T01:43:07;8.30;99.90
23629;DHT22;11991;57.150;-2.134;2022-09-28T01:45:48;8.30;99.90
23629;DHT22;11991;57.150;-2.134;2022-09-28T01:48:37;8.30;99.90
23629;DHT22;11991;57.150;-2.134;2022-09-28T01:51:27;8.30;99.90
23629;DHT22;11991;57.150;-2.134;2022-09-28T01:54:00;8.30;99.90
23629;DHT22;11991;57.150;-2.134;2022-09-28T01:56:38;8.20;99.90
23629;DHT22;11991;57.150;-2.134;2022-09-28T01:59:15;8.20;99.90
23629;DHT22;11991;57.150;-2.134;2022-09-28T02:01:54;8.20;99.90
23629;DHT22;11991;57.150;-2.134;2022-09-28T02:04:30;8.20;99.90
23629;DHT22;11991;57.150;-2.134;2022-09-28T02:09:52;8.10;99.90
23629;DHT22;11991;57.150;-2.134;2022-09-28T02:15:34;8.10;99.90
23629;DHT22;11991;57.150;-2.134;2022-09-28T02:18:03;8.00;99.90
23629;DHT22;11991;57.150;-2.134;2022-09-28T02:20:31;8.00;99.90
23629;DHT22;11991;57.150;-2.134;2022-09-28T02:23:01;8.00;99.90
23629;DHT22;11991;57.150;-2.134;2022-09-28T02:25:38;8.00;99.90
23629;DHT22;11991;57.150;-2.134;2022-09-28T02:28:09;8.00;99.90
23629;DHT22;11991;57.150;-2.134;2022-09-28T02:30:39;8.00;99.90
23629;DHT22;11991;57.150;-2.134;2022-09-28T02:35:45;8.00;99.90
23629;DHT22;11991;57.150;-2.134;2022-09-28T02:38:13;7.90;99.90
23629;DHT22;11991;57.150;-2.134;2022-09-28T02:40:44;7.90;99.90
23629;DHT22;11991;57.150;-2.134;2022-09-28T02:57:42;8.00;99.90
23629;DHT22;11991;57.150;-2.134;2022-09-28T03:00:14;8.00;99.90
23629;DHT22;11991;57.150;-2.134;2022-09-28T03:06:03;8.00;99.90
23629;DHT22;11991;57.150;-2.134;2022-09-28T03:08:40;8.00;99.90
23629;DHT22;11991;57.150;-2.134;2022-09-28T03:11:21;8.00;99.90
23629;DHT22;11991;57.150;-2.134;2022-09-28T03:13:50;8.00;99.90
23629;DHT22;11991;57.150;-2.134;2022-09-28T03:16:21;8.00;99.90
23629;DHT22;11991;57.150;-2.134;2022-09-28T03:18:48;8.00;99.90
23629;DHT22;11991;57.150;-2.134;2022-09-28T03:21:15;8.10;99.90
23629;DHT22;11991;57.150;-2.134;2022-09-28T03:23:43;8.10;99.90
23629;DHT22;11991;57.150;-2.134;2022-09-28T03:26:10;8.10;99.90
23629;DHT22;11991;57.150;-2.134;2022-09-28T03:28:39;8.20;99.90
23629;DHT22;11991;57.150;-2.134;2022-09-28T03:31:10;8.20;99.90
23629;DHT22;11991;57.150;-2.134;2022-09-28T03:33:37;8.20;99.90
23629;DHT22;11991;57.150;-2.134;2022-09-28T03:36:04;8.30;99.90
23629;DHT22;11991;57.150;-2.134;2022-09-28T03:38:32;8.30;99.90
23629;DHT22;11991;57.150;-2.134;2022-09-28T03:40:59;8.30;99.90
23629;DHT22;11991;57.150;-2.134;2022-09-28T03:43:33;8.40;99.90
23629;DHT22;11991;57.150;-2.134;2022-09-28T03:46:02;8.40;99.90
23629;DHT22;11991;57.150;-2.134;2022-09-28T03:48:34;8.40;99.90
23629;DHT22;11991;57.150;-2.134;2022-09-28T03:51:05;8.50;99.90
23629;DHT22;11991;57.150;-2.134;2022-09-28T03:53:35;8.50;99.90
23629;DHT22;11991;57.150;-2.134;2022-09-28T03:56:05;8.50;99.90
23629;DHT22;11991;57.150;-2.134;2022-09-28T03:58:33;8.50;99.90
23629;DHT22;11991;57.150;-2.134;2022-09-28T04:01:06;8.50;99.90
23629;DHT22;11991;57.150;-2.134;2022-09-28T04:03:36;8.50;99.90
23629;DHT22;11991;57.150;-2.134;2022-09-28T04:06:04;8.50;99.90
23629;DHT22;11991;57.150;-2.134;2022-09-28T04:08:31;8.50;99.90
23629;DHT22;11991;57.150;-2.134;2022-09-28T04:10:59;8.50;99.90
23629;DHT22;11991;57.150;-2.134;2022-09-28T04:13:28;8.50;99.90
23629;DHT22;11991;57.150;-2.134;2022-09-28T04:15:58;8.50;99.90
23629;DHT22;11991;57.150;-2.134;2022-09-28T04:18:28;8.50;99.90
23629;DHT22;11991;57.150;-2.134;2022-09-28T04:21:18;8.50;99.90
23629;DHT22;11991;57.150;-2.134;2022-09-28T04:23:54;8.50;99.90
23629;DHT22;11991;57.150;-2.134;2022-09-28T04:26:24;8.50;99.90
23629;DHT22;11991;57.150;-2.134;2022-09-28T04:28:52;8.50;99.90
23629;DHT22;11991;57.150;-2.134;2022-09-28T04:31:50;8.50;99.90
23629;DHT22;11991;57.150;-2.134;2022-09-28T04:34:21;8.50;99.90
23629;DHT22;11991;57.150;-2.134;2022-09-28T04:36:49;8.50;99.90
23629;DHT22;11991;57.150;-2.134;2022-09-28T04:39:17;8.50;99.90
23629;DHT22;11991;57.150;-2.134;2022-09-28T04:41:51;8.50;99.90
23629;DHT22;11991;57.150;-2.134;2022-09-28T04:44:18;8.50;99.90
23629;DHT22;11991;57.150;-2.134;2022-09-28T04:46:48;8.50;99.90
23629;DHT22;11991;57.150;-2.134;2022-09-28T04:49:27;8.50;99.90
23629;DHT22;11991;57.150;-2.134;2022-09-28T04:51:57;8.50;99.90
23629;DHT22;11991;57.150;-2.134;2022-09-28T04:54:24;8.60;99.90
23629;DHT22;11991;57.150;-2.134;2022-09-28T04:56:51;8.60;99.90
23629;DHT22;11991;57.150;-2.134;2022-09-28T04:59:19;8.60;99.90
23629;DHT22;11991;57.150;-2.134;2022-09-28T05:01:46;8.60;99.90
23629;DHT22;11991;57.150;-2.134;2022-09-28T05:04:32;8.60;99.90
23629;DHT22;11991;57.150;-2.134;2022-09-28T05:07:03;8.60;99.90
23629;DHT22;11991;57.150;-2.134;2022-09-28T05:09:30;8.60;99.90
23629;DHT22;11991;57.150;-2.134;2022-09-28T05:12:03;8.60;99.90
23629;DHT22;11991;57.150;-2.134;2022-09-28T05:14:54;8.70;99.90
23629;DHT22;11991;57.150;-2.134;2022-09-28T05:17:22;8.70;99.90
23629;DHT22;11991;57.150;-2.134;2022-09-28T05:20:08;8.70;99.90
23629;DHT22;11991;57.150;-2.134;2022-09-28T05:22:35;8.70;99.90
23629;DHT22;11991;57.150;-2.134;2022-09-28T05:25:04;8.70;99.90
23629;DHT22;11991;57.150;-2.134;2022-09-28T05:27:42;8.70;99.90
23629;DHT22;11991;57.150;-2.134;2022-09-28T05:30:23;8.70;99.90
23629;DHT22;11991;57.150;-2.134;2022-09-28T05:33:10;8.70;99.90
23629;DHT22;11991;57.150;-2.134;2022-09-28T05:35:43;8.70;99.90
23629;DHT22;11991;57.150;-2.134;2022-09-28T05:38:10;8.70;99.90
23629;DHT22;11991;57.150;-2.134;2022-09-28T05:40:37;8.70;99.90
23629;DHT22;11991;57.150;-2.134;2022-09-28T05:43:05;8.70;99.90
23629;DHT22;11991;57.150;-2.134;2022-09-28T05:45:32;8.70;99.90
23629;DHT22;11991;57.150;-2.134;2022-09-28T05:48:01;8.80;99.90
23629;DHT22;11991;57.150;-2.134;2022-09-28T05:50:28;8.80;99.90
23629;DHT22;11991;57.150;-2.134;2022-09-28T05:53:03;8.80;99.90
23629;DHT22;11991;57.150;-2.134;2022-09-28T05:55:31;8.80;99.90
23629;DHT22;11991;57.150;-2.134;2022-09-28T05:58:04;8.80;99.90
23629;DHT22;11991;57.150;-2.134;2022-09-28T06:00:34;8.90;99.90
23629;DHT22;11991;57.150;-2.134;2022-09-28T06:03:07;8.90;99.90
23629;DHT22;11991;57.150;-2.134;2022-09-28T06:05:37;8.90;99.90
23629;DHT22;11991;57.150;-2.134;2022-09-28T06:08:06;9.00;99.90
23629;DHT22;11991;57.150;-2.134;2022-09-28T06:10:34;9.00;99.90
23629;DHT22;11991;57.150;-2.134;2022-09-28T06:13:01;9.00;99.90
23629;DHT22;11991;57.150;-2.134;2022-09-28T06:15:31;9.00;99.90
23629;DHT22;11991;57.150;-2.134;2022-09-28T06:18:02;9.00;99.90
23629;DHT22;11991;57.150;-2.134;2022-09-28T06:20:56;9.00;99.90
23629;DHT22;11991;57.150;-2.134;2022-09-28T06:23:31;9.10;99.90
23629;DHT22;11991;57.150;-2.134;2022-09-28T06:25:58;9.10;99.90
23629;DHT22;11991;57.150;-2.134;2022-09-28T06:28:26;9.10;99.90
23629;DHT22;11991;57.150;-2.134;2022-09-28T06:30:55;9.10;99.90
23629;DHT22;11991;57.150;-2.134;2022-09-28T06:33:25;9.10;99.90
23629;DHT22;11991;57.150;-2.134;2022-09-28T06:35:52;9.10;99.90
23629;DHT22;11991;57.150;-2.134;2022-09-28T06:38:20;9.10;99.90
23629;DHT22;11991;57.150;-2.134;2022-09-28T06:40:48;9.10;99.90
23629;DHT22;11991;57.150;-2.134;2022-09-28T06:43:15;9.10;99.90
23629;DHT22;11991;57.150;-2.134;2022-09-28T06:46:01;9.20;99.90
23629;DHT22;11991;57.150;-2.134;2022-09-28T06:48:40;9.10;99.90
23629;DHT22;11991;57.150;-2.134;2022-09-28T06:51:12;9.10;99.90
23629;DHT22;11991;57.150;-2.134;2022-09-28T06:54:08;9.10;99.90
23629;DHT22;11991;57.150;-2.134;2022-09-28T06:56:39;9.10;99.90
23629;DHT22;11991;57.150;-2.134;2022-09-28T06:59:06;9.10;99.90
23629;DHT22;11991;57.150;-2.134;2022-09-28T07:01:35;9.10;99.90
23629;DHT22;11991;57.150;-2.134;2022-09-28T07:04:12;9.10;99.90
23629;DHT22;11991;57.150;-2.134;2022-09-28T07:07:04;9.10;99.90
23629;DHT22;11991;57.150;-2.134;2022-09-28T07:10:05;9.10;99.90
23629;DHT22;11991;57.150;-2.134;2022-09-28T07:12:41;9.10;99.90
23629;DHT22;11991;57.150;-2.134;2022-09-28T07:15:22;9.10;99.90
23629;DHT22;11991;57.150;-2.134;2022-09-28T07:17:56;9.10;99.90
23629;DHT22;11991;57.150;-2.134;2022-09-28T07:20:30;9.20;99.90
23629;DHT22;11991;57.150;-2.134;2022-09-28T07:23:05;9.20;99.90
23629;DHT22;11991;57.150;-2.134;2022-09-28T07:26:05;9.30;99.90
23629;DHT22;11991;57.150;-2.134;2022-09-28T07:28:48;9.30;99.90
23629;DHT22;11991;57.150;-2.134;2022-09-28T07:31:39;9.40;99.90
23629;DHT22;11991;57.150;-2.134;2022-09-28T07:34:32;9.40;99.90
23629;DHT22;11991;57.150;-2.134;2022-09-28T07:37:14;9.50;99.90
23629;DHT22;11991;57.150;-2.134;2022-09-28T07:39:45;9.50;99.90
23629;DHT22;11991;57.150;-2.134;2022-09-28T07:42:33;9.50;99.90
23629;DHT22;11991;57.150;-2.134;2022-09-28T07:45:02;9.60;99.90
23629;DHT22;11991;57.150;-2.134;2022-09-28T07:47:29;9.60;99.90
23629;DHT22;11991;57.150;-2.134;2022-09-28T07:50:19;9.70;99.90
23629;DHT22;11991;57.150;-2.134;2022-09-28T07:53:00;9.70;99.90
23629;DHT22;11991;57.150;-2.134;2022-09-28T07:55:40;9.70;99.90
23629;DHT22;11991;57.150;-2.134;2022-09-28T07:58:12;9.80;99.90
23629;DHT22;11991;57.150;-2.134;2022-09-28T08:00:48;9.90;99.90
23629;DHT22;11991;57.150;-2.134;2022-09-28T08:03:18;9.90;99.90
23629;DHT22;11991;57.150;-2.134;2022-09-28T08:05:46;10.00;99.90
23629;DHT22;11991;57.150;-2.134;2022-09-28T08:08:14;10.00;99.90
23629;DHT22;11991;57.150;-2.134;2022-09-28T08:10:43;10.00;99.90
23629;DHT22;11991;57.150;-2.134;2022-09-28T08:13:39;10.10;99.90
23629;DHT22;11991;57.150;-2.134;2022-09-28T08:16:21;10.10;99.90
23629;DHT22;11991;57.150;-2.134;2022-09-28T08:18:56;10.20;99.90
23629;DHT22;11991;57.150;-2.134;2022-09-28T08:21:24;10.20;99.90
23629;DHT22;11991;57.150;-2.134;2022-09-28T08:24:15;10.20;99.90
23629;DHT22;11991;57.150;-2.134;2022-09-28T08:26:44;10.30;99.90
23629;DHT22;11991;57.150;-2.134;2022-09-28T08:29:14;10.30;99.90
23629;DHT22;11991;57.150;-2.134;2022-09-28T08:31:48;10.30;99.90
23629;DHT22;11991;57.150;-2.134;2022-09-28T08:34:39;10.40;99.90
23629;DHT22;11991;57.150;-2.134;2022-09-28T08:37:20;10.40;99.90
23629;DHT22;11991;57.150;-2.134;2022-09-28T08:40:21;10.40;99.90
23629;DHT22;11991;57.150;-2.134;2022-09-28T08:46:01;10.50;99.90
23629;DHT22;11991;57.150;-2.134;2022-09-28T08:48:57;10.50;99.90
23629;DHT22;11991;57.150;-2.134;2022-09-28T08:52:10;10.60;99.90
23629;DHT22;11991;57.150;-2.134;2022-09-28T08:54:54;10.60;99.90
23629;DHT22;11991;57.150;-2.134;2022-09-28T09:00:29;10.80;99.90
23629;DHT22;11991;57.150;-2.134;2022-09-28T09:02:57;10.90;99.90
23629;DHT22;11991;57.150;-2.134;2022-09-28T09:05:42;10.90;99.90
23629;DHT22;11991;57.150;-2.134;2022-09-28T09:22:40;11.40;99.90
23629;DHT22;11991;57.150;-2.134;2022-09-28T09:25:19;11.40;99.90
23629;DHT22;11991;57.150;-2.134;2022-09-28T09:33:32;11.50;99.90
23629;DHT22;11991;57.150;-2.134;2022-09-28T09:40:02;11.50;99.90
23629;DHT22;11991;57.150;-2.134;2022-09-28T09:49:43;11.60;99.90
23629;DHT22;11991;57.150;-2.134;2022-09-28T09:52:25;11.70;99.90
23629;DHT22;11991;57.150;-2.134;2022-09-28T09:55:12;11.70;99.90
23629;DHT22;11991;57.150;-2.134;2022-09-28T09:57:52;11.80;99.90
23629;DHT22;11991;57.150;-2.134;2022-09-28T10:00:32;11.80;99.90
23629;DHT22;11991;57.150;-2.134;2022-09-28T10:03:28;11.90;99.90
23629;DHT22;11991;57.150;-2.134;2022-09-28T10:06:24;12.00;99.90
23629;DHT22;11991;57.150;-2.134;2022-09-28T10:11:31;12.10;99.90
23629;DHT22;11991;57.150;-2.134;2022-09-28T10:14:03;12.10;99.90
23629;DHT22;11991;57.150;-2.134;2022-09-28T10:16:37;12.20;99.90
23629;DHT22;11991;57.150;-2.134;2022-09-28T10:19:11;12.30;99.90
23629;DHT22;11991;57.150;-2.134;2022-09-28T10:22:02;12.30;99.90
23629;DHT22;11991;57.150;-2.134;2022-09-28T10:24:42;12.20;99.90
23629;DHT22;11991;57.150;-2.134;2022-09-28T10:27:17;12.20;99.90
23629;DHT22;11991;57.150;-2.134;2022-09-28T10:29:59;12.20;99.90
23629;DHT22;11991;57.150;-2.134;2022-09-28T10:32:39;12.20;99.90
23629;DHT22;11991;57.150;-2.134;2022-09-28T10:35:21;12.20;99.90
23629;DHT22;11991;57.150;-2.134;2022-09-28T10:38:05;12.20;99.90
23629;DHT22;11991;57.150;-2.134;2022-09-28T10:40:45;12.10;99.90
23629;DHT22;11991;57.150;-2.134;2022-09-28T10:46:08;12.10;99.90
23629;DHT22;11991;57.150;-2.134;2022-09-28T10:48:48;12.10;99.90
23629;DHT22;11991;57.150;-2.134;2022-09-28T10:51:19;12.20;99.90
23629;DHT22;11991;57.150;-2.134;2022-09-28T10:54:00;12.20;99.90
23629;DHT22;11991;57.150;-2.134;2022-09-28T10:56:51;12.20;99.90
23629;DHT22;11991;57.150;-2.134;2022-09-28T10:59:47;12.20;99.90
23629;DHT22;11991;57.150;-2.134;2022-09-28T11:02:27;12.30;99.90
23629;DHT22;11991;57.150;-2.134;2022-09-28T11:05:23;12.30;99.90
23629;DHT22;11991;57.150;-2.134;2022-09-28T11:07:59;12.30;99.90
23629;DHT22;11991;57.150;-2.134;2022-09-28T11:10:35;12.20;99.90
23629;DHT22;11991;57.150;-2.134;2022-09-28T11:13:10;12.30;99.90
23629;DHT22;11991;57.150;-2.134;2022-09-28T11:15:41;12.20;99.90
23629;DHT22;11991;57.150;-2.134;2022-09-28T11:18:27;12.20;99.90
23629;DHT22;11991;57.150;-2.134;2022-09-28T11:21:07;12.10;99.90
23629;DHT22;11991;57.150;-2.134;2022-09-28T11:26:24;11.80;99.90
23629;DHT22;11991;57.150;-2.134;2022-09-28T11:28:52;11.80;99.90
23629;DHT22;11991;57.150;-2.134;2022-09-28T11:31:30;11.70;99.90
23629;DHT22;11991;57.150;-2.134;2022-09-28T11:34:15;11.70;99.90
23629;DHT22;11991;57.150;-2.134;2022-09-28T11:37:10;11.60;99.90
23629;DHT22;11991;57.150;-2.134;2022-09-28T11:45:31;11.60;99.90
23629;DHT22;11991;57.150;-2.134;2022-09-28T11:48:03;11.60;99.90
23629;DHT22;11991;57.150;-2.134;2022-09-28T11:50:49;11.70;99.90
23629;DHT22;11991;57.150;-2.134;2022-09-28T11:53:22;11.70;99.90
23629;DHT22;11991;57.150;-2.134;2022-09-28T11:58:47;11.70;99.90
23629;DHT22;11991;57.150;-2.134;2022-09-28T12:01:42;11.70;99.90
23629;DHT22;11991;57.150;-2.134;2022-09-28T12:04:45;11.70;99.90
23629;DHT22;11991;57.150;-2.134;2022-09-28T12:07:24;11.70;99.90
23629;DHT22;11991;57.150;-2.134;2022-09-28T12:12:32;11.70;99.90
23629;DHT22;11991;57.150;-2.134;2022-09-28T12:17:53;11.80;99.90
23629;DHT22;11991;57.150;-2.134;2022-09-28T12:20:26;11.70;99.90
23629;DHT22;11991;57.150;-2.134;2022-09-28T12:23:16;11.70;99.90
23629;DHT22;11991;57.150;-2.134;2022-09-28T12:25:50;11.70;99.90
23629;DHT22;11991;57.150;-2.134;2022-09-28T12:31:33;11.60;99.90
23629;DHT22;11991;57.150;-2.134;2022-09-28T12:34:04;11.60;99.90
23629;DHT22;11991;57.150;-2.134;2022-09-28T12:39:21;11.70;99.90
23629;DHT22;11991;57.150;-2.134;2022-09-28T12:51:08;11.90;99.90
23629;DHT22;11991;57.150;-2.134;2022-09-28T12:53:54;11.90;99.90
23629;DHT22;11991;57.150;-2.134;2022-09-28T12:59:19;12.10;99.90
23629;DHT22;11991;57.150;-2.134;2022-09-28T13:07:15;12.20;99.90
23629;DHT22;11991;57.150;-2.134;2022-09-28T13:15:28;12.30;99.90
23629;DHT22;11991;57.150;-2.134;2022-09-28T13:18:09;12.30;99.90
23629;DHT22;11991;57.150;-2.134;2022-09-28T13:20:39;12.30;99.90
23629;DHT22;11991;57.150;-2.134;2022-09-28T13:25:42;12.40;99.90
23629;DHT22;11991;57.150;-2.134;2022-09-28T13:28:11;12.40;99.90
23629;DHT22;11991;57.150;-2.134;2022-09-28T13:30:39;12.50;99.90
23629;DHT22;11991;57.150;-2.134;2022-09-28T13:33:17;12.50;99.90
23629;DHT22;11991;57.150;-2.134;2022-09-28T13:35:46;12.60;99.90
23629;DHT22;11991;57.150;-2.134;2022-09-28T13:52:04;12.70;99.90
23629;DHT22;11991;57.150;-2.134;2022-09-28T13:57:39;12.80;99.90
23629;DHT22;11991;57.150;-2.134;2022-09-28T14:03:22;12.70;99.90
23629;DHT22;11991;57.150;-2.134;2022-09-28T14:06:04;12.70;99.90
23629;DHT22;11991;57.150;-2.134;2022-09-28T14:08:44;12.70;99.90
23629;DHT22;11991;57.150;-2.134;2022-09-28T14:16:39;12.70;99.90
23629;DHT22;11991;57.150;-2.134;2022-09-28T14:22:05;12.70;99.90
23629;DHT22;11991;57.150;-2.134;2022-09-28T14:32:57;12.60;99.90
23629;DHT22;11991;57.150;-2.134;2022-09-28T14:35:31;12.60;99.90
23629;DHT22;11991;57.150;-2.134;2022-09-28T14:38:20;12.60;99.90
23629;DHT22;11991;57.150;-2.134;2022-09-28T14:41:07;12.70;99.90
23629;DHT22;11991;57.150;-2.134;2022-09-28T14:43:57;12.70;99.90
23629;DHT22;11991;57.150;-2.134;2022-09-28T14:46:30;12.70;99.90
23629;DHT22;11991;57.150;-2.134;2022-09-28T14:49:01;12.70;99.90
23629;DHT22;11991;57.150;-2.134;2022-09-28T14:54:02;12.70;99.90
23629;DHT22;11991;57.150;-2.134;2022-09-28T14:59:29;12.60;99.90
23629;DHT22;11991;57.150;-2.134;2022-09-28T15:04:51;12.60;99.90
23629;DHT22;11991;57.150;-2.134;2022-09-28T15:07:22;12.60;99.90
23629;DHT22;11991;57.150;-2.134;2022-09-28T15:09:55;12.60;99.90
23629;DHT22;11991;57.150;-2.134;2022-09-28T15:12:27;12.60;99.90
23629;DHT22;11991;57.150;-2.134;2022-09-28T15:15:25;12.50;99.90
23629;DHT22;11991;57.150;-2.134;2022-09-28T15:20:40;12.50;99.90
23629;DHT22;11991;57.150;-2.134;2022-09-28T15:25:58;12.50;99.90
23629;DHT22;11991;57.150;-2.134;2022-09-28T15:28:25;12.50;99.90
23629;DHT22;11991;57.150;-2.134;2022-09-28T15:31:00;12.50;99.90
23629;DHT22;11991;57.150;-2.134;2022-09-28T15:33:34;12.50;99.90
23629;DHT22;11991;57.150;-2.134;2022-09-28T15:36:24;12.50;99.90
23629;DHT22;11991;57.150;-2.134;2022-09-28T15:38:55;12.40;99.90
23629;DHT22;11991;57.150;-2.134;2022-09-28T15:41:24;12.50;99.90
23629;DHT22;11991;57.150;-2.134;2022-09-28T15:46:41;12.50;99.90
23629;DHT22;11991;57.150;-2.134;2022-09-28T15:52:05;12.50;99.90
23629;DHT22;11991;57.150;-2.134;2022-09-28T15:54:41;12.50;99.90
23629;DHT22;11991;57.150;-2.134;2022-09-28T15:57:33;12.40;99.90
23629;DHT22;11991;57.150;-2.134;2022-09-28T16:00:28;12.40;99.90
23629;DHT22;11991;57.150;-2.134;2022-09-28T16:05:49;12.40;99.90
23629;DHT22;11991;57.150;-2.134;2022-09-28T16:08:21;12.40;99.90
23629;DHT22;11991;57.150;-2.134;2022-09-28T16:16:49;12.30;99.90
23629;DHT22;11991;57.150;-2.134;2022-09-28T16:21:47;12.30;99.90
23629;DHT22;11991;57.150;-2.134;2022-09-28T16:24:23;12.30;99.90
23629;DHT22;11991;57.150;-2.134;2022-09-28T16:27:01;12.30;99.90
23629;DHT22;11991;57.150;-2.134;2022-09-28T16:29:39;12.30;99.90
23629;DHT22;11991;57.150;-2.134;2022-09-28T16:37:38;12.30;99.90
23629;DHT22;11991;57.150;-2.134;2022-09-28T16:40:11;12.30;99.90
23629;DHT22;11991;57.150;-2.134;2022-09-28T16:42:40;12.30;99.90
23629;DHT22;11991;57.150;-2.134;2022-09-28T16:45:21;12.20;99.90
23629;DHT22;11991;57.150;-2.134;2022-09-28T16:47:54;12.30;99.90
23629;DHT22;11991;57.150;-2.134;2022-09-28T16:50:23;12.30;99.90
23629;DHT22;11991;57.150;-2.134;2022-09-28T16:53:15;12.30;99.90
23629;DHT22;11991;57.150;-2.134;2022-09-28T16:56:03;12.30;99.90
23629;DHT22;11991;57.150;-2.134;2022-09-28T16:58:32;12.30;99.90
23629;DHT22;11991;57.150;-2.134;2022-09-28T17:01:00;12.30;99.90
23629;DHT22;11991;57.150;-2.134;2022-09-28T17:03:27;12.30;99.90
23629;DHT22;11991;57.150;-2.134;2022-09-28T17:05:55;12.20;99.90
23629;DHT22;11991;57.150;-2.134;2022-09-28T17:08:26;12.20;99.90
23629;DHT22;11991;57.150;-2.134;2022-09-28T17:10:56;12.20;99.90
23629;DHT22;11991;57.150;-2.134;2022-09-28T17:13:44;12.20;99.90
23629;DHT22;11991;57.150;-2.134;2022-09-28T17:16:17;12.20;99.90
23629;DHT22;11991;57.150;-2.134;2022-09-28T17:18:58;12.20;99.90
23629;DHT22;11991;57.150;-2.134;2022-09-28T17:21:26;12.20;99.90
23629;DHT22;11991;57.150;-2.134;2022-09-28T17:23:54;12.10;99.90
23629;DHT22;11991;57.150;-2.134;2022-09-28T17:26:26;12.10;99.90
23629;DHT22;11991;57.150;-2.134;2022-09-28T17:28:57;12.10;99.90
23629;DHT22;11991;57.150;-2.134;2022-09-28T17:31:28;12.00;99.90
23629;DHT22;11991;57.150;-2.134;2022-09-28T17:33:56;12.00;99.90
23629;DHT22;11991;57.150;-2.134;2022-09-28T17:36:24;12.00;99.90
23629;DHT22;11991;57.150;-2.134;2022-09-28T17:38:52;12.00;99.90
23629;DHT22;11991;57.150;-2.134;2022-09-28T17:41:20;11.90;99.90
23629;DHT22;11991;57.150;-2.134;2022-09-28T17:43:48;12.00;99.90
23629;DHT22;11991;57.150;-2.134;2022-09-28T17:46:36;11.90;99.90
23629;DHT22;11991;57.150;-2.134;2022-09-28T17:49:08;11.90;99.90
23629;DHT22;11991;57.150;-2.134;2022-09-28T17:51:36;12.00;99.90
23629;DHT22;11991;57.150;-2.134;2022-09-28T17:54:05;12.00;99.90
23629;DHT22;11991;57.150;-2.134;2022-09-28T18:09:17;12.00;99.90
23629;DHT22;11991;57.150;-2.134;2022-09-28T18:11:57;12.00;99.90
23629;DHT22;11991;57.150;-2.134;2022-09-28T18:14:26;12.00;99.90
23629;DHT22;11991;57.150;-2.134;2022-09-28T18:16:54;12.00;99.90
23629;DHT22;11991;57.150;-2.134;2022-09-28T18:19:22;12.00;99.90
23629;DHT22;11991;57.150;-2.134;2022-09-28T18:21:49;12.00;99.90
23629;DHT22;11991;57.150;-2.134;2022-09-28T18:24:16;12.00;99.90
23629;DHT22;11991;57.150;-2.134;2022-09-28T18:26:43;12.00;99.90
23629;DHT22;11991;57.150;-2.134;2022-09-28T18:29:16;12.00;99.90
23629;DHT22;11991;57.150;-2.134;2022-09-28T18:31:43;12.00;99.90
23629;DHT22;11991;57.150;-2.134;2022-09-28T18:34:11;12.00;99.90
23629;DHT22;11991;57.150;-2.134;2022-09-28T18:36:45;12.00;99.90
23629;DHT22;11991;57.150;-2.134;2022-09-28T18:39:20;12.00;99.90
23629;DHT22;11991;57.150;-2.134;2022-09-28T18:41:47;12.00;99.90
23629;DHT22;11991;57.150;-2.134;2022-09-28T18:44:15;12.00;99.90
23629;DHT22;11991;57.150;-2.134;2022-09-28T18:46:43;12.00;99.90
23629;DHT22;11991;57.150;-2.134;2022-09-28T18:49:15;12.00;99.90
23629;DHT22;11991;57.150;-2.134;2022-09-28T18:51:43;12.00;99.90
23629;DHT22;11991;57.150;-2.134;2022-09-28T18:54:10;12.00;99.90
23629;DHT22;11991;57.150;-2.134;2022-09-28T18:56:37;12.00;99.90
23629;DHT22;11991;57.150;-2.134;2022-09-28T18:59:07;12.00;99.90
23629;DHT22;11991;57.150;-2.134;2022-09-28T19:01:43;12.00;99.90
23629;DHT22;11991;57.150;-2.134;2022-09-28T19:04:10;11.90;99.90
23629;DHT22;11991;57.150;-2.134;2022-09-28T19:06:40;11.90;99.90
23629;DHT22;11991;57.150;-2.134;2022-09-28T19:09:08;12.00;99.90
23629;DHT22;11991;57.150;-2.134;2022-09-28T19:11:36;11.90;99.90
23629;DHT22;11991;57.150;-2.134;2022-09-28T19:14:07;12.00;99.90
23629;DHT22;11991;57.150;-2.134;2022-09-28T19:16:37;12.00;99.90
23629;DHT22;11991;57.150;-2.134;2022-09-28T19:19:09;12.00;99.90
23629;DHT22;11991;57.150;-2.134;2022-09-28T19:21:37;11.90;99.90
23629;DHT22;11991;57.150;-2.134;2022-09-28T19:24:04;11.90;99.90
23629;DHT22;11991;57.150;-2.134;2022-09-28T19:26:32;12.00;99.90
23629;DHT22;11991;57.150;-2.134;2022-09-28T19:29:00;12.00;99.90
23629;DHT22;11991;57.150;-2.134;2022-09-28T19:31:29;12.00;99.90
23629;DHT22;11991;57.150;-2.134;2022-09-28T19:34:04;11.90;99.90
23629;DHT22;11991;57.150;-2.134;2022-09-28T19:36:35;12.00;99.90
23629;DHT22;11991;57.150;-2.134;2022-09-28T19:39:02;11.90;99.90
23629;DHT22;11991;57.150;-2.134;2022-09-28T19:41:32;11.90;99.90
23629;DHT22;11991;57.150;-2.134;2022-09-28T19:44:15;11.90;99.90
23629;DHT22;11991;57.150;-2.134;2022-09-28T19:46:47;11.90;99.90
23629;DHT22;11991;57.150;-2.134;2022-09-28T19:49:15;12.00;99.90